createdAt,value
2018-03-18T00:01:00.707Z,0.47
2018-03-18T00:02:10.778Z,0.47
2018-03-18T00:03:20.916Z,0.41
2018-03-18T00:04:30.971Z,0.32
2018-03-18T00:05:41.043Z,0.34
2018-03-18T00:06:51.096Z,0.31
2018-03-18T00:08:01.166Z,0.34
2018-03-18T00:09:11.042Z,0.24
2018-03-18T00:10:20.572Z,0.26
2018-03-18T00:11:30.657Z,0.21
2018-03-18T00:12:40.184Z,0.24
2018-03-18T00:13:50.006Z,0.17
2018-03-18T00:14:59.852Z,0.24
2018-03-18T00:16:09.384Z,0.24
2018-03-18T00:17:18.649Z,0.28
2018-03-18T00:18:28.708Z,0.23
2018-03-18T00:19:38.881Z,0.21
2018-03-18T00:20:48.682Z,0.23
2018-03-18T00:21:58.471Z,0.24
2018-03-18T00:23:08.523Z,0.26
2018-03-18T00:24:18.601Z,0.21
2018-03-18T00:25:28.655Z,0.2
2018-03-18T00:26:38.757Z,0.23
2018-03-18T00:27:48.565Z,0.2
2018-03-18T00:28:58.137Z,0.19
2018-03-18T00:30:08.123Z,0.21
2018-03-18T00:31:18.040Z,0.24
2018-03-18T00:32:28.318Z,0.26
2018-03-18T00:33:38.159Z,0.17
2018-03-18T00:34:47.762Z,0.2
2018-03-18T00:35:57.820Z,0.19
2018-03-18T00:37:07.886Z,0.21
2018-03-18T00:38:17.476Z,0.1
2018-03-18T00:39:26.999Z,0.2
2018-03-18T00:40:37.070Z,0.21
2018-03-18T00:41:46.853Z,0.21
2018-03-18T00:42:56.905Z,0.14
2018-03-18T00:44:06.970Z,0.23
2018-03-18T00:45:17.065Z,0.23
2018-03-18T00:46:26.858Z,0.26
2018-03-18T00:47:36.693Z,0.26
2018-03-18T00:48:46.574Z,0.24
2018-03-18T00:49:56.377Z,0.27
2018-03-18T00:51:06.157Z,0.24
2018-03-18T00:52:16.188Z,0.23
2018-03-18T00:53:25.470Z,0.2
2018-03-18T00:54:35.542Z,0.14
2018-03-18T00:55:45.592Z,0.19
2018-03-18T00:56:54.892Z,0.2
2018-03-18T00:58:04.699Z,0.24
2018-03-18T00:59:14.245Z,0.2
2018-03-18T01:00:24.290Z,0.17
2018-03-18T01:01:33.830Z,0.2
2018-03-18T01:02:43.683Z,0.17
2018-03-18T01:03:53.750Z,0.23
2018-03-18T01:05:03.282Z,0.26
2018-03-18T01:06:13.348Z,0.19
2018-03-18T01:07:23.412Z,0.23
2018-03-18T01:08:33.543Z,0.21
2018-03-18T01:09:43.614Z,0.17
2018-03-18T01:10:53.686Z,0.17
2018-03-18T01:12:03.741Z,0.26
2018-03-18T01:13:13.775Z,0.27
2018-03-18T01:14:23.874Z,0.17
2018-03-18T01:15:33.666Z,0.17
2018-03-18T01:16:43.460Z,0.23
2018-03-18T01:17:52.718Z,0.19
2018-03-18T01:19:02.521Z,0.21
2018-03-18T01:20:12.602Z,0.17
2018-03-18T01:21:22.649Z,0.17
2018-03-18T01:22:32.445Z,0.14
2018-03-18T01:23:42.251Z,0.14
2018-03-18T01:24:52.057Z,0.23
2018-03-18T01:26:01.849Z,0.23
2018-03-18T01:27:11.663Z,0.16
2018-03-18T01:28:21.724Z,0.16
2018-03-18T01:29:31.781Z,0.2
2018-03-18T01:30:41.316Z,0.17
2018-03-18T01:31:51.359Z,0.17
2018-03-18T01:33:01.416Z,0.16
2018-03-18T01:34:11.194Z,0.2
2018-03-18T01:35:21.249Z,0.2
2018-03-18T01:36:31.061Z,0.1
2018-03-18T01:37:40.855Z,0.13
2018-03-18T01:38:50.640Z,0.19
2018-03-18T01:40:00.690Z,0.19
2018-03-18T01:41:10.495Z,0.17
2018-03-18T01:42:20.020Z,0.2
2018-03-18T01:43:29.863Z,0.19
2018-03-18T01:44:39.956Z,0.23
2018-03-18T01:45:50.014Z,0.19
2018-03-18T01:47:00.063Z,0.21
2018-03-18T01:48:09.855Z,0.17
2018-03-18T01:49:19.405Z,0.16
2018-03-18T01:50:29.477Z,0.13
2018-03-18T01:51:39.534Z,0.1
2018-03-18T01:52:49.346Z,0.1
2018-03-18T01:53:59.173Z,0.09
2018-03-18T01:55:08.537Z,0.08
2018-03-18T01:56:18.343Z,0.13
2018-03-18T01:57:28.131Z,0.05
2018-03-18T01:58:37.677Z,0.05
2018-03-18T01:59:47.727Z,0.09
2018-03-18T02:00:57.568Z,0.02
2018-03-18T02:02:07.643Z,0.13
2018-03-18T02:03:17.435Z,0.06
2018-03-18T02:04:27.564Z,0.09
2018-03-18T02:05:37.357Z,0.09
2018-03-18T02:06:47.405Z,0.09
2018-03-18T02:07:57.206Z,0.08
2018-03-18T02:09:06.997Z,0.09
2018-03-18T02:10:17.066Z,0.08
2018-03-18T02:11:27.124Z,0.02
2018-03-18T02:12:36.992Z,0.01
2018-03-18T02:13:47.056Z,-0.01
2018-03-18T02:14:56.840Z,0.14
2018-03-18T02:16:06.670Z,0.06
2018-03-18T02:17:16.731Z,0.02
2018-03-18T02:18:26.909Z,0.01
2018-03-18T02:19:36.420Z,-0.05
2018-03-18T02:20:46.562Z,0.01
2018-03-18T02:21:56.614Z,0.05
2018-03-18T02:23:06.672Z,-0.01
2018-03-18T02:24:16.728Z,0.05
2018-03-18T02:25:26.511Z,-0.01
2018-03-18T02:26:36.305Z,0.01
2018-03-18T02:27:45.833Z,0.09
2018-03-18T02:28:55.890Z,0.09
2018-03-18T02:30:06.011Z,0.06
2018-03-18T02:31:16.090Z,0.09
2018-03-18T02:32:25.881Z,0.1
2018-03-18T02:33:35.683Z,0.14
2018-03-18T02:34:45.508Z,0.09
2018-03-18T02:35:55.368Z,0.09
2018-03-18T02:37:05.190Z,0.2
2018-03-18T02:38:14.977Z,0.13
2018-03-18T02:39:25.043Z,0.13
2018-03-18T02:40:34.889Z,0.17
2018-03-18T02:41:44.735Z,0.16
2018-03-18T02:42:54.802Z,0.1
2018-03-18T02:44:04.869Z,0.08
2018-03-18T02:45:14.915Z,0.1
2018-03-18T02:46:24.736Z,0.1
2018-03-18T02:47:34.538Z,0.09
2018-03-18T02:48:44.324Z,0.09
2018-03-18T02:49:53.863Z,0.1
2018-03-18T02:51:03.669Z,0.1
2018-03-18T02:52:13.463Z,0.01
2018-03-18T02:53:23.730Z,0.01
2018-03-18T02:54:33.781Z,0.01
2018-03-18T02:55:43.871Z,0.03
2018-03-18T02:56:53.677Z,0.03
2018-03-18T02:58:03.740Z,-0.13
2018-03-18T02:59:13.600Z,-0.13
2018-03-18T03:00:23.402Z,-0.22
2018-03-18T03:01:32.676Z,-0.23
2018-03-18T03:02:42.746Z,-0.2
2018-03-18T03:03:52.554Z,-0.1
2018-03-18T03:05:02.133Z,-0.02
2018-03-18T03:06:21.649Z,-0.18
2018-03-18T03:07:31.173Z,-0.1
2018-03-18T03:39:27.646Z,-2.58
2018-03-18T03:40:37.697Z,-2.57
2018-03-18T03:41:47.487Z,-2.61
2018-03-18T03:42:57.535Z,-2.57
2018-03-18T03:44:07.593Z,-2.49
2018-03-18T03:45:17.709Z,-2.46
2018-03-18T03:46:27.777Z,-2.21
2018-03-18T03:47:37.829Z,-2.07
2018-03-18T03:48:47.895Z,-2
2018-03-18T03:49:57.943Z,-1.81
2018-03-18T03:51:08.060Z,-1.73
2018-03-18T03:52:18.101Z,-1.53
2018-03-18T03:53:28.150Z,-1.5
2018-03-18T03:54:38.203Z,-1.3
2018-03-18T03:55:48.270Z,-1.16
2018-03-18T03:56:58.363Z,-1.01
2018-03-18T03:58:08.415Z,-0.87
2018-03-18T03:59:18.477Z,-0.87
2018-03-18T04:00:28.544Z,-0.79
2018-03-18T04:01:38.603Z,-0.58
2018-03-18T04:02:48.452Z,-0.62
2018-03-18T04:03:58.508Z,-0.61
2018-03-18T04:05:08.313Z,-0.55
2018-03-18T04:06:17.820Z,-0.55
2018-03-18T04:07:27.088Z,-0.59
2018-03-18T04:08:36.931Z,-0.61
2018-03-18T04:09:47.001Z,-0.51
2018-03-18T04:10:56.597Z,-0.48
2018-03-18T04:12:06.641Z,-0.54
2018-03-18T04:13:16.689Z,-0.49
2018-03-18T04:14:26.219Z,-0.55
2018-03-18T04:15:35.730Z,-0.59
2018-03-18T04:16:45.258Z,-0.51
2018-03-18T04:17:55.053Z,-0.61
2018-03-18T04:19:05.117Z,-0.59
2018-03-18T04:20:14.668Z,-0.59
2018-03-18T04:21:24.449Z,-0.64
2018-03-18T04:22:34.250Z,-0.61
2018-03-18T04:23:44.078Z,-0.59
2018-03-18T04:24:53.897Z,-0.62
2018-03-18T04:26:03.679Z,-0.66
2018-03-18T04:27:13.223Z,-0.54
2018-03-18T04:28:23.263Z,-0.59
2018-03-18T04:29:33.081Z,-0.55
2018-03-18T04:30:43.129Z,-0.48
2018-03-18T04:31:53.192Z,-0.59
2018-03-18T04:33:02.972Z,-0.61
2018-03-18T04:34:13.038Z,-0.66
2018-03-18T04:35:23.081Z,-0.58
2018-03-18T04:36:32.602Z,-0.66
2018-03-18T04:37:42.697Z,-0.61
2018-03-18T04:38:52.485Z,-0.66
2018-03-18T04:40:02.557Z,-0.55
2018-03-18T04:41:12.620Z,-0.62
2018-03-18T04:42:22.671Z,-0.66
2018-03-18T04:43:32.803Z,-0.61
2018-03-18T04:44:42.586Z,-0.62
2018-03-18T04:45:52.106Z,-0.59
2018-03-18T04:47:02.162Z,-0.59
2018-03-18T04:48:11.692Z,-0.67
2018-03-18T04:49:21.615Z,-0.59
2018-03-18T04:50:31.711Z,-0.62
2018-03-18T04:51:41.762Z,-0.67
2018-03-18T04:52:51.807Z,-0.66
2018-03-18T04:54:01.583Z,-0.61
2018-03-18T04:55:11.632Z,-0.64
2018-03-18T04:56:20.898Z,-0.61
2018-03-18T04:57:30.680Z,-0.67
2018-03-18T04:58:40.476Z,-0.64
2018-03-18T04:59:50.521Z,-0.49
2018-03-18T05:01:00.359Z,-0.54
2018-03-18T05:02:10.420Z,-0.51
2018-03-18T05:03:20.211Z,-0.48
2018-03-18T05:04:30.279Z,-0.45
2018-03-18T05:05:40.079Z,-0.45
2018-03-18T05:06:50.129Z,-0.48
2018-03-18T05:08:00.165Z,-0.45
2018-03-18T05:09:09.691Z,-0.4
2018-03-18T05:10:19.479Z,-0.48
2018-03-18T05:11:29.534Z,-0.51
2018-03-18T05:12:39.651Z,-0.51
2018-03-18T05:13:49.505Z,-0.54
2018-03-18T05:14:59.587Z,-0.48
2018-03-18T05:16:09.123Z,-0.48
2018-03-18T05:17:18.918Z,-0.37
2018-03-18T05:18:28.691Z,-0.37
2018-03-18T05:19:38.755Z,-0.45
2018-03-18T05:20:48.271Z,-0.36
2018-03-18T05:21:57.779Z,-0.38
2018-03-18T05:23:07.563Z,-0.48
2018-03-18T05:24:17.355Z,-0.38
2018-03-18T05:25:27.431Z,-0.46
2018-03-18T05:26:37.464Z,-0.45
2018-03-18T05:27:46.721Z,-0.41
2018-03-18T05:28:56.525Z,-0.4
2018-03-18T05:30:06.568Z,-0.4
2018-03-18T05:31:16.616Z,-0.37
2018-03-18T05:32:26.683Z,-0.38
2018-03-18T05:33:36.472Z,-0.34
2018-03-18T05:34:46.275Z,-0.28
2018-03-18T05:35:56.072Z,-0.19
2018-03-18T05:37:05.859Z,-0.22
2018-03-18T05:38:15.901Z,-0.33
2018-03-18T05:39:25.708Z,-0.2
2018-03-18T05:40:35.780Z,-0.19
2018-03-18T05:41:45.882Z,-0.22
2018-03-18T05:42:55.928Z,-0.19
2018-03-18T05:44:05.987Z,-0.09
2018-03-18T05:45:15.777Z,-0.09
2018-03-18T05:46:25.863Z,0.08
2018-03-18T05:47:35.961Z,-0.01
2018-03-18T05:48:45.735Z,0.01
2018-03-18T05:49:55.283Z,-0.04
2018-03-18T05:51:05.344Z,-0.02
2018-03-18T05:52:15.132Z,0.08
2018-03-18T05:53:25.242Z,0.05
2018-03-18T05:54:35.314Z,0.06
2018-03-18T05:55:45.099Z,0.08
2018-03-18T05:56:55.158Z,0.09
2018-03-18T05:58:05.241Z,0.1
2018-03-18T05:59:15.037Z,0.09
2018-03-18T06:00:25.080Z,0.13
2018-03-18T06:01:34.882Z,0.17
2018-03-18T06:02:44.947Z,0.1
2018-03-18T06:03:55.038Z,0.21
2018-03-18T06:05:04.823Z,0.24
2018-03-18T06:06:14.899Z,0.27
2018-03-18T06:07:24.700Z,0.28
2018-03-18T06:08:34.492Z,0.35
2018-03-18T06:09:44.014Z,0.34
2018-03-18T06:10:53.794Z,0.35
2018-03-18T06:12:03.926Z,0.39
2018-03-18T06:13:13.980Z,0.52
2018-03-18T06:14:23.789Z,0.61
2018-03-18T06:15:33.846Z,0.56
2018-03-18T06:16:43.975Z,0.57
2018-03-18T06:17:53.770Z,0.69
2018-03-18T06:19:03.682Z,0.69
2018-03-18T06:20:13.742Z,0.75
2018-03-18T06:21:23.815Z,0.84
2018-03-18T06:22:33.932Z,0.82
2018-03-18T06:23:43.714Z,0.85
2018-03-18T06:24:53.701Z,0.86
2018-03-18T06:26:03.573Z,0.94
2018-03-18T06:27:13.629Z,0.94
2018-03-18T06:28:23.484Z,0.89
2018-03-18T06:29:33.541Z,0.97
2018-03-18T06:30:43.625Z,0.93
2018-03-18T06:31:53.684Z,0.9
2018-03-18T06:33:03.480Z,0.97
2018-03-18T06:34:13.530Z,1.02
2018-03-18T06:35:23.062Z,1.03
2018-03-18T06:36:32.837Z,0.97
2018-03-18T06:37:42.900Z,1.07
2018-03-18T06:38:52.947Z,1.03
2018-03-18T06:40:02.747Z,1.07
2018-03-18T06:41:12.881Z,1.14
2018-03-18T06:42:22.931Z,1.07
2018-03-18T06:43:32.715Z,1.2
2018-03-18T06:44:42.500Z,1.33
2018-03-18T06:45:52.649Z,1.46
2018-03-18T06:47:02.189Z,1.5
2018-03-18T06:48:12.004Z,1.61
2018-03-18T06:49:22.048Z,1.75
2018-03-18T06:50:31.823Z,1.75
2018-03-18T06:51:41.620Z,1.72
2018-03-18T06:52:51.671Z,1.72
2018-03-18T06:54:01.536Z,1.87
2018-03-18T06:55:11.454Z,1.97
2018-03-18T06:56:21.518Z,2.04
2018-03-18T06:57:31.588Z,1.92
2018-03-18T06:58:41.142Z,1.9
2018-03-18T06:59:50.933Z,1.9
2018-03-18T07:01:00.727Z,1.92
2018-03-18T07:02:10.530Z,1.89
2018-03-18T07:03:20.308Z,1.98
2018-03-18T07:04:30.165Z,2.11
2018-03-18T07:05:40.237Z,2.22
2018-03-18T07:06:50.355Z,2.2
2018-03-18T07:08:00.149Z,2.27
2018-03-18T07:09:10.199Z,2.3
2018-03-18T07:10:19.991Z,2.33
2018-03-18T07:11:30.053Z,2.41
2018-03-18T07:12:40.168Z,2.41
2018-03-18T07:13:49.967Z,2.4
2018-03-18T07:14:59.787Z,2.45
2018-03-18T07:16:09.584Z,2.45
2018-03-18T07:17:19.372Z,2.62
2018-03-18T07:18:29.493Z,2.59
2018-03-18T07:19:39.291Z,2.72
2018-03-18T07:20:48.830Z,2.83
2018-03-18T07:21:58.619Z,2.78
2018-03-18T07:23:08.161Z,2.91
2018-03-18T07:24:17.954Z,3.01
2018-03-18T07:25:28.117Z,3.11
2018-03-18T07:26:37.964Z,3.16
2018-03-18T07:27:47.475Z,3.23
2018-03-18T07:28:57.571Z,3.39
2018-03-18T07:30:07.364Z,3.32
2018-03-18T07:31:17.406Z,3.35
2018-03-18T07:32:27.532Z,3.46
2018-03-18T07:33:37.584Z,3.37
2018-03-18T07:34:47.121Z,3.37
2018-03-18T07:35:56.943Z,3.42
2018-03-18T07:37:06.746Z,3.42
2018-03-18T07:38:16.400Z,3.39
2018-03-18T07:39:27.197Z,3.48
2018-03-18T07:40:37.250Z,3.54
2018-03-18T07:41:47.049Z,3.53
2018-03-18T07:42:56.823Z,3.51
2018-03-18T07:44:06.932Z,3.49
2018-03-18T07:45:16.726Z,3.53
2018-03-18T07:46:26.266Z,3.39
2018-03-18T07:47:36.088Z,3.34
2018-03-18T07:48:45.894Z,3.26
2018-03-18T07:49:55.473Z,3.3
2018-03-18T07:51:05.275Z,3.39
2018-03-18T07:52:15.349Z,3.34
2018-03-18T07:53:25.472Z,3.45
2018-03-18T07:54:35.259Z,3.49
2018-03-18T07:55:44.861Z,3.71
2018-03-18T07:56:54.922Z,3.78
2018-03-18T07:58:04.462Z,3.85
2018-03-18T07:59:14.508Z,3.92
2018-03-18T08:00:24.575Z,4
2018-03-18T08:01:34.675Z,4.03
2018-03-18T08:02:44.481Z,3.97
2018-03-18T08:03:54.534Z,3.9
2018-03-18T08:05:04.327Z,3.97
2018-03-18T08:06:14.121Z,3.92
2018-03-18T08:07:24.250Z,3.89
2018-03-18T08:08:33.789Z,3.9
2018-03-18T08:09:43.382Z,3.82
2018-03-18T08:10:53.448Z,3.78
2018-03-18T08:12:02.977Z,3.72
2018-03-18T08:13:13.115Z,3.75
2018-03-18T08:14:23.173Z,3.69
2018-03-18T08:15:33.271Z,3.66
2018-03-18T08:16:43.337Z,3.66
2018-03-18T08:17:53.505Z,3.74
2018-03-18T08:19:03.574Z,3.67
2018-03-18T08:20:13.635Z,3.82
2018-03-18T08:21:23.713Z,3.9
2018-03-18T08:22:33.533Z,3.86
2018-03-18T08:23:43.337Z,3.99
2018-03-18T08:24:53.435Z,4.04
2018-03-18T08:26:03.488Z,4.11
2018-03-18T08:27:13.559Z,4.15
2018-03-18T08:28:23.611Z,4.2
2018-03-18T08:29:33.170Z,4.14
2018-03-18T08:30:43.029Z,4.18
2018-03-18T08:31:53.101Z,4.36
2018-03-18T08:33:03.141Z,4.3
2018-03-18T08:34:13.228Z,4.36
2018-03-18T08:35:22.527Z,4.4
2018-03-18T08:36:32.628Z,4.38
2018-03-18T08:37:42.433Z,4.39
2018-03-18T08:38:52.573Z,4.26
2018-03-18T08:40:02.632Z,4.29
2018-03-18T08:41:12.713Z,4.2
2018-03-18T08:42:22.556Z,4.4
2018-03-18T08:43:32.632Z,4.5
2018-03-18T08:44:42.699Z,4.65
2018-03-18T08:45:52.775Z,4.87
2018-03-18T08:47:02.834Z,4.92
2018-03-18T08:48:12.908Z,4.88
2018-03-18T08:49:22.967Z,4.78
2018-03-18T08:50:33.043Z,4.84
2018-03-18T08:51:43.171Z,4.74
2018-03-18T08:52:53.244Z,4.78
2018-03-18T08:54:03.294Z,4.69
2018-03-18T08:55:13.360Z,4.58
2018-03-18T08:56:23.145Z,4.66
2018-03-18T08:57:33.205Z,4.6
2018-03-18T08:58:43.265Z,4.61
2018-03-18T08:59:53.351Z,4.6
2018-03-18T09:01:03.405Z,4.65
2018-03-18T09:02:13.195Z,4.6
2018-03-18T09:03:23.251Z,4.58
2018-03-18T09:04:33.052Z,4.6
2018-03-18T09:05:43.133Z,4.69
2018-03-18T09:06:52.671Z,4.64
2018-03-18T09:08:02.492Z,4.71
2018-03-18T09:09:12.314Z,4.72
2018-03-18T09:10:21.937Z,4.76
2018-03-18T09:11:32.048Z,4.76
2018-03-18T09:12:42.135Z,4.9
2018-03-18T09:13:52.206Z,4.88
2018-03-18T09:15:02.266Z,4.9
2018-03-18T09:16:12.078Z,4.91
2018-03-18T09:17:22.205Z,4.87
2018-03-18T09:18:31.771Z,4.83
2018-03-18T09:19:41.846Z,4.84
2018-03-18T09:20:51.680Z,4.76
2018-03-18T09:22:01.768Z,4.72
2018-03-18T09:23:11.733Z,4.69
2018-03-18T09:24:21.820Z,4.79
2018-03-18T09:25:31.622Z,4.74
2018-03-18T09:26:41.451Z,4.79
2018-03-18T09:27:51.556Z,4.91
2018-03-18T09:29:01.354Z,5
2018-03-18T09:30:11.418Z,5.03
2018-03-18T09:31:21.258Z,5.05
2018-03-18T09:32:31.055Z,5.1
2018-03-18T09:33:41.116Z,5.06
2018-03-18T09:34:51.027Z,5.2
2018-03-18T09:36:01.098Z,5.27
2018-03-18T09:37:11.165Z,5.36
2018-03-18T09:38:21.258Z,5.52
2018-03-18T09:39:31.425Z,5.62
2018-03-18T09:40:41.245Z,5.57
2018-03-18T09:41:50.798Z,5.55
2018-03-18T09:43:00.895Z,5.52
2018-03-18T09:44:10.970Z,5.55
2018-03-18T09:45:21.051Z,5.51
2018-03-18T09:46:31.191Z,5.54
2018-03-18T09:47:40.994Z,5.48
2018-03-18T09:48:50.888Z,5.62
2018-03-18T09:50:00.748Z,5.62
2018-03-18T09:51:10.551Z,5.72
2018-03-18T09:52:20.426Z,5.85
2018-03-18T09:53:30.253Z,5.91
2018-03-18T09:54:40.347Z,6.06
2018-03-18T09:55:50.143Z,6.13
2018-03-18T09:56:59.700Z,6.2
2018-03-18T09:58:09.573Z,6.31
2018-03-18T09:59:19.374Z,6.37
2018-03-18T10:00:29.452Z,6.42
2018-03-18T10:01:39.038Z,6.6
2018-03-18T10:02:48.788Z,6.78
2018-03-18T10:03:58.906Z,7.11
2018-03-18T10:05:08.970Z,7.16
2018-03-18T10:06:18.254Z,7.39
2018-03-18T10:07:28.362Z,7.54
2018-03-18T10:08:38.177Z,7.75
2018-03-18T10:09:48.022Z,7.88
2018-03-18T10:10:58.104Z,7.92
2018-03-18T10:12:07.641Z,8.06
2018-03-18T10:13:17.181Z,8.01
2018-03-18T10:14:27.330Z,7.92
2018-03-18T10:15:36.901Z,7.91
2018-03-18T10:16:46.948Z,7.89
2018-03-18T10:17:56.486Z,7.95
2018-03-18T10:19:06.366Z,7.91
2018-03-18T10:20:16.601Z,7.93
2018-03-18T10:21:26.815Z,7.92
2018-03-18T10:22:36.606Z,7.93
2018-03-18T10:23:46.433Z,8.06
2018-03-18T10:24:56.509Z,8.17
2018-03-18T10:26:06.394Z,8.14
2018-03-18T10:27:17.300Z,8.14
2018-03-18T10:28:28.411Z,8.5
2018-03-18T10:29:38.948Z,8.47
2018-03-18T10:30:49.334Z,8.57
2018-03-18T10:31:59.110Z,8.67
2018-03-18T10:33:08.996Z,8.77
2018-03-18T10:34:19.260Z,9.04
2018-03-18T10:35:29.083Z,9.26
2018-03-18T10:36:39.162Z,9.48
2018-03-18T10:37:48.973Z,9.62
2018-03-18T10:38:59.138Z,9.81
2018-03-18T10:40:09.241Z,9.95
2018-03-18T10:41:19.328Z,10.07
2018-03-18T10:42:29.137Z,10.18
2018-03-18T10:43:39.247Z,10.31
2018-03-18T10:44:49.379Z,10.49
2018-03-18T10:45:59.182Z,10.38
2018-03-18T10:47:09.381Z,10.49
2018-03-18T10:48:19.715Z,10.57
2018-03-18T10:49:29.806Z,10.54
2018-03-18T10:50:39.738Z,10.35
2018-03-18T10:51:49.298Z,10.42
2018-03-18T10:52:59.130Z,10.31
2018-03-18T10:54:08.695Z,10.23
2018-03-18T10:55:18.263Z,10.11
2018-03-18T10:56:28.193Z,10.08
2018-03-18T10:57:38.022Z,10.17
2018-03-18T10:58:48.116Z,10.13
2018-03-18T10:59:57.669Z,10.11
2018-03-18T11:01:07.798Z,9.84
2018-03-18T11:02:17.918Z,9.81
2018-03-18T11:03:27.736Z,9.67
2018-03-18T11:04:37.845Z,9.63
2018-03-18T11:05:47.962Z,9.57
2018-03-18T11:06:57.781Z,9.53
2018-03-18T11:08:07.951Z,9.56
2018-03-18T11:09:17.801Z,9.59
2018-03-18T11:10:27.898Z,9.44
2018-03-18T11:11:38.052Z,9.26
2018-03-18T11:12:48.130Z,9.21
2018-03-18T11:13:58.267Z,9.17
2018-03-18T11:15:08.390Z,9.16
2018-03-18T11:16:18.785Z,9.3
2018-03-18T11:17:28.956Z,9.2
2018-03-18T11:18:38.749Z,9.05
2018-03-18T11:19:48.822Z,9.16
2018-03-18T11:20:58.927Z,9.12
2018-03-18T11:22:09.031Z,9.01
2018-03-18T11:23:19.128Z,8.74
2018-03-18T11:24:29.268Z,8.57
2018-03-18T11:25:39.347Z,8.31
2018-03-18T11:26:49.421Z,7.95
2018-03-18T11:27:59.519Z,7.8
2018-03-18T11:29:09.329Z,7.67
2018-03-18T11:30:19.421Z,7.61
2018-03-18T11:31:29.705Z,7.71
2018-03-18T11:32:39.799Z,7.86
2018-03-18T11:33:49.893Z,8.01
2018-03-18T11:34:59.702Z,8.25
2018-03-18T11:36:09.530Z,8.32
2018-03-18T11:37:19.695Z,8.32
2018-03-18T11:38:29.776Z,8.47
2018-03-18T11:39:39.592Z,8.46
2018-03-18T11:40:49.656Z,8.57
2018-03-18T11:41:59.458Z,8.72
2018-03-18T11:43:09.549Z,8.8
2018-03-18T11:44:19.383Z,8.79
2018-03-18T11:45:28.998Z,8.72
2018-03-18T11:46:39.096Z,8.67
2018-03-18T11:47:49.184Z,8.74
2018-03-18T11:48:59.345Z,8.77
2018-03-18T11:50:08.908Z,8.8
2018-03-18T11:51:18.971Z,8.92
2018-03-18T11:52:29.079Z,8.98
2018-03-18T11:53:38.902Z,9.01
2018-03-18T11:54:49.516Z,8.95
2018-03-18T11:55:59.904Z,8.76
2018-03-18T11:57:10.097Z,8.68
2018-03-18T11:58:19.978Z,8.74
2018-03-18T11:59:29.790Z,8.83
2018-03-18T12:00:40.070Z,8.8
2018-03-18T12:01:49.630Z,8.89
2018-03-18T12:02:59.740Z,8.79
2018-03-18T12:04:10.053Z,8.85
2018-03-18T12:05:20.140Z,8.83
2018-03-18T12:06:30.084Z,8.8
2018-03-18T12:07:40.089Z,8.82
2018-03-18T12:08:49.648Z,9.08
2018-03-18T12:09:59.761Z,9.2
2018-03-18T12:11:09.842Z,9.2
2018-03-18T12:12:19.776Z,9.09
2018-03-18T12:13:29.933Z,9
2018-03-18T12:14:39.550Z,8.95
2018-03-18T12:15:49.117Z,9.12
2018-03-18T12:16:59.251Z,9.16
2018-03-18T12:18:09.144Z,9.23
2018-03-18T12:19:19.235Z,9.2
2018-03-18T12:20:29.336Z,9.21
2018-03-18T12:21:39.243Z,9.12
2018-03-18T12:22:49.049Z,8.87
2018-03-18T12:23:59.459Z,8.69
2018-03-18T12:25:09.286Z,8.53
2018-03-18T12:26:19.370Z,8.52
2018-03-18T12:27:29.466Z,8.4
2018-03-18T12:28:39.274Z,8.22
2018-03-18T12:29:49.155Z,8.22
2018-03-18T12:30:59.067Z,8.17
2018-03-18T12:32:09.164Z,7.96
2018-03-18T12:33:18.997Z,8.01
2018-03-18T12:34:29.097Z,8.01
2018-03-18T12:35:38.935Z,8.03
2018-03-18T12:36:49.058Z,7.78
2018-03-18T12:37:59.041Z,7.56
2018-03-18T12:39:09.272Z,7.49
2018-03-18T12:40:19.596Z,7.54
2018-03-18T12:41:29.755Z,7.45
2018-03-18T12:42:39.826Z,7.45
2018-03-18T12:43:49.916Z,7.36
2018-03-18T12:44:59.999Z,7.49
2018-03-18T12:46:10.109Z,7.58
2018-03-18T12:47:19.981Z,7.68
2018-03-18T12:48:29.801Z,7.64
2018-03-18T12:49:39.625Z,7.54
2018-03-18T12:50:49.727Z,7.52
2018-03-18T12:51:59.836Z,7.63
2018-03-18T12:53:09.986Z,7.58
2018-03-18T12:54:19.883Z,7.75
2018-03-18T12:55:29.694Z,7.7
2018-03-18T12:56:39.815Z,7.74
2018-03-18T12:57:49.895Z,7.75
2018-03-18T12:58:59.820Z,7.8
2018-03-18T13:00:09.908Z,7.8
2018-03-18T13:01:19.969Z,7.85
2018-03-18T13:02:30.061Z,7.85
2018-03-18T13:03:40.150Z,7.82
2018-03-18T13:04:49.429Z,7.89
2018-03-18T13:05:59.534Z,7.73
2018-03-18T13:07:09.236Z,7.64
2018-03-18T13:08:19.868Z,7.68
2018-03-18T13:09:29.735Z,7.51
2018-03-18T13:10:39.607Z,7.39
2018-03-18T13:11:48.883Z,7.19
2018-03-18T13:12:58.730Z,7.21
2018-03-18T13:14:08.257Z,7.03
2018-03-18T13:15:18.322Z,7.05
2018-03-18T13:16:28.489Z,6.97
2018-03-18T13:17:38.310Z,6.8
2018-03-18T13:18:47.830Z,6.76
2018-03-18T13:19:57.632Z,6.76
2018-03-18T13:21:07.485Z,6.54
2018-03-18T13:22:17.631Z,6.49
2018-03-18T13:23:27.195Z,6.54
2018-03-18T13:24:37.276Z,6.49
2018-03-18T13:25:47.186Z,6.55
2018-03-18T13:26:57.228Z,6.51
2018-03-18T13:28:07.390Z,6.6
2018-03-18T13:29:17.202Z,6.44
2018-03-18T13:30:27.269Z,6.47
2018-03-18T13:31:37.085Z,6.29
2018-03-18T13:32:47.142Z,6.29
2018-03-18T13:33:57.249Z,6.28
2018-03-18T13:35:07.036Z,6.26
2018-03-18T13:36:17.160Z,6.24
2018-03-18T13:37:27.241Z,6.18
2018-03-18T13:38:37.073Z,6.17
2018-03-18T13:39:47.240Z,6.14
2018-03-18T13:40:57.794Z,6.31
2018-03-18T13:42:07.858Z,6.33
2018-03-18T13:43:17.937Z,6.36
2018-03-18T13:44:28.151Z,6.36
2018-03-18T13:45:38.447Z,6.39
2018-03-18T13:46:48.654Z,6.34
2018-03-18T13:47:58.657Z,6.31
2018-03-18T13:49:08.493Z,6.18
2018-03-18T13:50:18.362Z,6.09
2018-03-18T13:51:28.193Z,6.05
2018-03-18T13:52:37.984Z,5.95
2018-03-18T13:53:48.078Z,5.91
2018-03-18T13:54:57.959Z,5.96
2018-03-18T13:56:07.838Z,5.91
2018-03-18T13:57:17.648Z,6.09
2018-03-18T13:58:27.735Z,6.03
2018-03-18T13:59:37.866Z,5.88
2018-03-18T14:00:47.938Z,5.89
2018-03-18T14:01:57.810Z,5.82
2018-03-18T14:03:07.910Z,5.78
2018-03-18T14:04:18.000Z,5.77
2018-03-18T14:05:28.039Z,5.77
2018-03-18T14:06:38.183Z,5.72
2018-03-18T14:07:48.253Z,5.72
2018-03-18T14:08:58.341Z,5.73
2018-03-18T14:10:08.434Z,5.63
2018-03-18T14:11:18.515Z,5.55
2018-03-18T14:12:28.336Z,5.55
2018-03-18T14:13:38.465Z,5.51
2018-03-18T14:14:48.548Z,5.49
2018-03-18T14:15:58.382Z,5.49
2018-03-18T14:17:08.210Z,5.59
2018-03-18T14:18:17.495Z,5.59
2018-03-18T14:19:27.385Z,5.57
2018-03-18T14:20:37.224Z,5.72
2018-03-18T14:21:47.058Z,5.78
2018-03-18T14:22:56.879Z,5.78
2018-03-18T14:24:06.714Z,5.95
2018-03-18T14:25:16.876Z,5.99
2018-03-18T14:26:27.011Z,5.89
2018-03-18T14:27:37.143Z,6.07
2018-03-18T14:28:47.289Z,6.13
2018-03-18T14:29:57.407Z,6.25
2018-03-18T14:31:07.629Z,6.17
2018-03-18T14:32:17.739Z,6.14
2018-03-18T14:33:27.319Z,6.21
2018-03-18T14:34:37.431Z,6.02
2018-03-18T14:35:47.017Z,6.06
2018-03-18T14:36:57.098Z,5.92
2018-03-18T14:38:06.397Z,5.87
2018-03-18T14:39:16.518Z,5.7
2018-03-18T14:40:26.632Z,5.7
2018-03-18T14:41:36.193Z,5.82
2018-03-18T14:42:46.082Z,5.88
2018-03-18T14:43:56.234Z,5.88
2018-03-18T14:45:06.518Z,6.02
2018-03-18T14:46:16.634Z,6.05
2018-03-18T14:47:26.192Z,6.18
2018-03-18T14:48:36.070Z,6.36
2018-03-18T14:49:46.166Z,6.46
2018-03-18T14:50:56.241Z,6.47
2018-03-18T14:52:05.798Z,6.51
2018-03-18T14:53:16.014Z,6.55
2018-03-18T14:54:26.001Z,6.6
2018-03-18T14:55:36.103Z,6.55
2018-03-18T14:56:45.940Z,6.51
2018-03-18T14:57:55.783Z,6.47
2018-03-18T14:59:05.906Z,6.42
2018-03-18T15:00:15.788Z,6.4
2018-03-18T15:01:25.943Z,6.28
2018-03-18T15:02:36.127Z,6.33
2018-03-18T15:03:46.310Z,6.13
2018-03-18T15:04:56.431Z,6.06
2018-03-18T15:06:06.315Z,5.92
2018-03-18T15:07:16.197Z,5.92
2018-03-18T15:08:26.332Z,5.91
2018-03-18T15:09:36.428Z,5.98
2018-03-18T15:10:46.294Z,5.92
2018-03-18T15:11:55.942Z,5.8
2018-03-18T15:13:05.781Z,5.84
2018-03-18T15:14:15.609Z,5.73
2018-03-18T15:15:25.938Z,5.57
2018-03-18T15:16:35.787Z,5.39
2018-03-18T15:17:45.864Z,5.27
2018-03-18T15:18:55.945Z,5.3
2018-03-18T15:20:06.024Z,5.21
2018-03-18T15:21:16.118Z,5.18
2018-03-18T15:22:25.960Z,5.2
2018-03-18T15:23:35.845Z,5
2018-03-18T15:24:45.951Z,4.94
2018-03-18T15:25:56.017Z,4.79
2018-03-18T15:27:05.823Z,4.66
2018-03-18T15:28:15.373Z,4.66
2018-03-18T15:29:25.520Z,4.78
2018-03-18T15:30:35.363Z,4.69
2018-03-18T15:31:45.198Z,4.71
2018-03-18T15:32:54.736Z,4.66
2018-03-18T15:34:04.587Z,4.58
2018-03-18T15:35:14.692Z,4.42
2018-03-18T15:36:24.768Z,4.35
2018-03-18T15:37:34.856Z,4.46
2018-03-18T15:38:44.989Z,4.32
2018-03-18T15:39:54.874Z,4.32
2018-03-18T15:41:05.155Z,4.32
2018-03-18T15:42:14.712Z,4.18
2018-03-18T15:43:24.506Z,4.18
2018-03-18T15:44:34.585Z,4.08
2018-03-18T15:45:44.398Z,4.08
2018-03-18T15:46:53.760Z,4
2018-03-18T15:48:03.856Z,4
2018-03-18T15:49:13.447Z,3.99
2018-03-18T15:50:23.295Z,4
2018-03-18T15:51:32.839Z,4.02
2018-03-18T15:52:42.451Z,4.04
2018-03-18T15:53:52.283Z,4.04
2018-03-18T15:55:02.124Z,3.99
2018-03-18T15:56:11.675Z,4.04
2018-03-18T15:57:21.239Z,4.04
2018-03-18T15:58:31.137Z,4
2018-03-18T15:59:40.768Z,4.02
2018-03-18T16:00:50.701Z,3.97